createdAt,value
2023-04-16T00:01:16.943Z,87.98
2023-04-16T00:02:48.560Z,87.01
2023-04-16T00:04:20.306Z,86.80
2023-04-16T00:05:55.680Z,86.24
2023-04-16T00:07:27.330Z,86.78
2023-04-16T00:08:59.002Z,87.46
2023-04-16T00:10:30.694Z,88.25
2023-04-16T00:12:02.531Z,87.96
2023-04-16T00:13:34.169Z,88.64
2023-04-16T00:15:06.194Z,88.67
2023-04-16T00:16:38.654Z,88.28
2023-04-16T00:18:10.342Z,88.17
2023-04-16T00:19:42.320Z,88.26
2023-04-16T00:21:14.116Z,88.51
2023-04-16T00:22:45.998Z,88.84
2023-04-16T00:24:17.591Z,87.05
2023-04-16T00:25:49.132Z,88.34
2023-04-16T00:27:20.802Z,88.82
2023-04-16T00:28:52.567Z,88.86
2023-04-16T00:30:24.229Z,89.03
2023-04-16T00:31:55.903Z,88.77
2023-04-16T00:33:30.172Z,86.61
2023-04-16T00:35:01.806Z,87.95
2023-04-16T00:36:33.388Z,88.30
2023-04-16T00:38:04.992Z,88.48
2023-04-16T00:39:37.338Z,87.54
2023-04-16T00:41:08.891Z,87.78
2023-04-16T00:42:40.438Z,87.67
2023-04-16T00:44:12.074Z,87.76
2023-04-16T00:45:43.612Z,88.08
2023-04-16T00:47:15.288Z,86.55
2023-04-16T00:48:47.523Z,87.12
2023-04-16T00:50:19.281Z,87.45
2023-04-16T00:51:51.108Z,87.98
2023-04-16T00:53:23.572Z,87.37
2023-04-16T00:54:56.524Z,87.65
2023-04-16T00:56:28.438Z,87.62
2023-04-16T00:58:00.207Z,88.04
2023-04-16T00:59:32.717Z,86.25
2023-04-16T01:01:04.598Z,85.91
2023-04-16T01:02:36.804Z,88.30
2023-04-16T01:04:08.809Z,88.46
2023-04-16T01:05:40.993Z,89.02
2023-04-16T01:07:12.744Z,88.62
2023-04-16T01:08:45.079Z,89.03
2023-04-16T01:10:16.755Z,88.54
2023-04-16T01:11:48.291Z,88.53
2023-04-16T01:13:19.912Z,87.89
2023-04-16T01:14:51.433Z,87.96
2023-04-16T01:16:23.082Z,88.45
2023-04-16T01:17:54.732Z,87.74
2023-04-16T01:19:26.386Z,87.32
2023-04-16T01:20:58.050Z,87.16
2023-04-16T01:22:29.807Z,87.77
2023-04-16T01:24:04.942Z,88.36
2023-04-16T01:25:38.292Z,88.74
2023-04-16T01:27:09.877Z,88.17
2023-04-16T01:28:42.102Z,88.32
2023-04-16T01:30:13.629Z,87.96
2023-04-16T01:31:55.764Z,87.95
2023-04-16T01:33:31.359Z,87.59
2023-04-16T01:35:03.038Z,87.93
2023-04-16T01:36:34.651Z,88.42
2023-04-16T01:38:07.880Z,88.29
2023-04-16T01:39:39.459Z,87.62
2023-04-16T01:41:13.120Z,87.23
2023-04-16T01:42:46.460Z,87.35
2023-04-16T01:44:18.174Z,87.70
2023-04-16T01:45:51.960Z,87.45
2023-04-16T01:47:23.587Z,87.29
2023-04-16T01:48:55.434Z,87.23
2023-04-16T01:50:27.256Z,87.59
2023-04-16T01:51:59.014Z,87.23
2023-04-16T01:53:30.632Z,88.00
2023-04-16T01:55:02.221Z,88.27
2023-04-16T01:56:33.932Z,88.63
2023-04-16T01:58:07.350Z,89.23
2023-04-16T01:59:39.899Z,89.72
2023-04-16T02:01:12.027Z,88.34
2023-04-16T02:02:44.206Z,89.34
2023-04-16T02:04:16.443Z,89.17
2023-04-16T02:05:48.130Z,89.66
2023-04-16T02:07:19.715Z,89.88
2023-04-16T02:08:51.600Z,90.18
2023-04-16T02:10:23.537Z,90.77
2023-04-16T02:11:55.653Z,90.77
2023-04-16T02:13:27.207Z,90.73
2023-04-16T02:15:00.064Z,90.41
2023-04-16T02:16:33.154Z,89.25
2023-04-16T02:18:14.639Z,90.51
2023-04-16T02:19:46.380Z,90.36
2023-04-16T02:21:18.003Z,91.16
2023-04-16T02:22:49.790Z,91.26
2023-04-16T02:24:24.341Z,89.60
2023-04-16T02:25:56.059Z,90.41
2023-04-16T02:27:27.668Z,90.65
2023-04-16T02:29:05.346Z,90.66
2023-04-16T02:30:47.404Z,90.95
2023-04-16T02:32:21.697Z,90.71
2023-04-16T02:33:53.269Z,90.22
2023-04-16T02:35:25.024Z,90.98
2023-04-16T02:36:58.304Z,90.32
2023-04-16T02:38:30.146Z,91.05
2023-04-16T02:40:02.082Z,90.29
2023-04-16T02:41:34.206Z,90.46
2023-04-16T02:43:05.900Z,90.04
2023-04-16T02:44:37.923Z,90.64
2023-04-16T02:46:09.592Z,90.65
2023-04-16T02:47:41.266Z,90.74
2023-04-16T02:49:13.304Z,91.30
2023-04-16T02:50:44.826Z,91.17
2023-04-16T02:52:16.524Z,90.70
2023-04-16T02:53:48.134Z,90.39
2023-04-16T02:55:19.896Z,91.02
2023-04-16T02:56:51.502Z,91.12
2023-04-16T02:58:25.676Z,89.67
2023-04-16T02:59:57.307Z,90.18
2023-04-16T03:01:29.110Z,90.49
2023-04-16T03:03:01.290Z,90.84
2023-04-16T03:04:33.387Z,90.72
2023-04-16T03:06:05.122Z,91.16
2023-04-16T03:07:39.161Z,90.89
2023-04-16T03:09:10.962Z,91.39
2023-04-16T03:10:43.890Z,91.04
2023-04-16T03:12:15.584Z,89.99
2023-04-16T03:13:47.236Z,90.25
2023-04-16T03:15:18.844Z,90.26
2023-04-16T03:16:50.475Z,90.66
2023-04-16T03:18:22.081Z,91.52
2023-04-16T03:19:54.708Z,90.71
2023-04-16T03:21:27.650Z,90.21
2023-04-16T03:22:59.269Z,90.44
2023-04-16T03:24:31.095Z,90.00
2023-04-16T03:26:02.744Z,90.41
2023-04-16T03:27:35.149Z,90.58
2023-04-16T03:29:07.241Z,90.28
2023-04-16T03:30:39.218Z,90.53
2023-04-16T03:32:12.743Z,90.36
2023-04-16T03:33:44.437Z,90.00
2023-04-16T03:35:16.161Z,89.79
2023-04-16T03:36:47.833Z,91.23
2023-04-16T03:38:19.504Z,91.13
2023-04-16T03:39:51.214Z,91.18
2023-04-16T03:41:22.841Z,90.38
2023-04-16T03:42:54.554Z,90.61
2023-04-16T03:44:26.416Z,90.56
2023-04-16T03:45:57.985Z,90.63
2023-04-16T03:47:29.872Z,90.35
2023-04-16T03:49:05.134Z,89.92
2023-04-16T03:50:36.791Z,89.37
2023-04-16T03:52:11.259Z,89.35
2023-04-16T03:53:43.018Z,89.80
2023-04-16T03:55:15.085Z,90.79
2023-04-16T03:56:46.755Z,91.35
2023-04-16T03:58:19.500Z,91.04
2023-04-16T03:59:52.310Z,90.73
2023-04-16T04:01:24.847Z,88.64
2023-04-16T04:02:57.759Z,88.52
2023-04-16T04:04:29.651Z,88.82
2023-04-16T04:06:07.402Z,89.74
2023-04-16T04:07:39.158Z,89.52
2023-04-16T04:09:10.938Z,89.74
2023-04-16T04:10:42.669Z,90.48
2023-04-16T04:12:16.091Z,89.56
2023-04-16T04:13:48.769Z,89.03
2023-04-16T04:15:20.415Z,88.49
2023-04-16T04:16:52.328Z,89.36
2023-04-16T04:18:24.094Z,89.89
2023-04-16T04:21:32.048Z,89.89
2023-04-16T04:23:03.799Z,88.72
2023-04-16T04:24:35.906Z,89.10
2023-04-16T04:26:07.756Z,88.91
2023-04-16T04:27:39.704Z,88.94
2023-04-16T04:29:13.815Z,88.32
2023-04-16T04:30:45.460Z,88.74
2023-04-16T04:32:17.721Z,88.85
2023-04-16T04:33:50.070Z,87.85
2023-04-16T04:35:22.110Z,88.83
2023-04-16T04:36:53.686Z,87.66
2023-04-16T04:38:25.620Z,89.10
2023-04-16T04:39:58.234Z,88.53
2023-04-16T04:41:29.877Z,88.66
2023-04-16T04:43:01.491Z,88.43
2023-04-16T04:44:33.098Z,87.98
2023-04-16T04:46:04.834Z,87.35
2023-04-16T04:47:37.218Z,87.50
2023-04-16T04:49:09.103Z,88.38
2023-04-16T04:50:42.368Z,88.54
2023-04-16T04:52:14.249Z,87.87
2023-04-16T04:53:46.252Z,86.91
2023-04-16T04:55:17.980Z,87.54
2023-04-16T04:56:50.164Z,87.61
2023-04-16T04:58:22.183Z,87.13
2023-04-16T04:59:53.829Z,87.61
2023-04-16T05:01:26.016Z,88.24
2023-04-16T05:02:57.697Z,89.02
2023-04-16T05:04:30.519Z,88.93
2023-04-16T05:06:02.124Z,88.67
2023-04-16T05:07:33.847Z,89.32
2023-04-16T05:09:05.509Z,88.96
2023-04-16T05:10:37.137Z,87.75
2023-04-16T05:12:08.750Z,86.90
2023-04-16T05:13:40.358Z,88.21
2023-04-16T05:15:12.024Z,87.24
2023-04-16T05:16:43.624Z,87.15
2023-04-16T05:18:15.654Z,88.11
2023-04-16T05:19:47.184Z,88.41
2023-04-16T05:21:18.861Z,88.10
2023-04-16T05:22:51.181Z,88.44
2023-04-16T05:24:23.193Z,87.68
2023-04-16T05:25:54.804Z,86.48
2023-04-16T05:27:26.410Z,86.98
2023-04-16T05:28:58.020Z,87.29
2023-04-16T05:30:29.607Z,88.28
2023-04-16T05:32:01.989Z,87.20
2023-04-16T05:33:33.548Z,88.46
2023-04-16T05:35:05.617Z,89.08
2023-04-16T05:36:37.225Z,88.56
2023-04-16T05:38:08.868Z,88.24
2023-04-16T05:39:40.461Z,88.45
2023-04-16T05:41:11.996Z,87.63
2023-04-16T05:42:43.576Z,88.40
2023-04-16T05:44:15.390Z,88.07
2023-04-16T05:45:47.070Z,87.57
2023-04-16T05:47:18.821Z,86.48
2023-04-16T05:48:50.616Z,86.79
2023-04-16T05:50:22.206Z,87.12
2023-04-16T05:51:53.915Z,86.67
2023-04-16T05:53:25.630Z,86.75
2023-04-16T05:54:58.032Z,87.29
2023-04-16T05:56:29.628Z,88.02
2023-04-16T05:58:04.330Z,87.50
2023-04-16T05:59:36.032Z,87.82
2023-04-16T06:01:07.696Z,89.10
2023-04-16T06:02:39.648Z,88.63
2023-04-16T06:04:11.465Z,87.92
2023-04-16T06:05:44.604Z,87.01
2023-04-16T06:07:16.214Z,89.00
2023-04-16T06:08:47.779Z,88.96
2023-04-16T06:10:19.463Z,88.33
2023-04-16T06:11:51.043Z,88.36
2023-04-16T06:13:22.645Z,88.16
2023-04-16T06:14:54.828Z,88.51
2023-04-16T06:16:26.522Z,88.07
2023-04-16T06:18:00.708Z,87.36
2023-04-16T06:19:32.561Z,86.58
2023-04-16T06:21:04.622Z,88.41
2023-04-16T06:22:36.259Z,88.06
2023-04-16T06:24:07.895Z,88.17
2023-04-16T06:25:39.584Z,87.91
2023-04-16T06:27:11.200Z,87.88
2023-04-16T06:28:42.745Z,88.31
2023-04-16T06:30:15.871Z,87.62
2023-04-16T06:31:48.457Z,87.58
2023-04-16T06:33:20.680Z,86.60
2023-04-16T06:34:52.355Z,86.97
2023-04-16T06:36:24.013Z,88.15
2023-04-16T06:37:55.590Z,88.76
2023-04-16T06:39:27.508Z,89.61
2023-04-16T06:40:59.612Z,88.46
2023-04-16T06:42:31.420Z,88.10
2023-04-16T06:44:03.052Z,86.82
2023-04-16T06:45:34.848Z,87.93
2023-04-16T06:47:06.574Z,87.12
2023-04-16T06:48:38.220Z,87.14
2023-04-16T06:50:10.297Z,88.38
2023-04-16T06:51:42.335Z,87.48
2023-04-16T06:53:13.999Z,87.67
2023-04-16T06:54:45.631Z,88.71
2023-04-16T06:56:17.224Z,87.60
2023-04-16T06:57:48.895Z,86.92
2023-04-16T06:59:20.423Z,86.97
2023-04-16T07:00:52.074Z,88.36
2023-04-16T07:02:24.403Z,89.03
2023-04-16T07:03:56.419Z,89.04
2023-04-16T07:05:28.108Z,87.04
2023-04-16T07:06:59.672Z,87.38
2023-04-16T07:08:31.310Z,88.15
2023-04-16T07:10:02.946Z,88.59
2023-04-16T07:11:36.097Z,88.53
2023-04-16T07:13:08.146Z,88.60
2023-04-16T07:14:39.827Z,88.33
2023-04-16T07:16:11.462Z,87.81
2023-04-16T07:17:43.149Z,88.11
2023-04-16T07:19:14.934Z,88.32
2023-04-16T07:20:46.559Z,86.90
2023-04-16T07:22:18.310Z,87.88
2023-04-16T07:23:49.910Z,88.19
2023-04-16T07:25:21.662Z,87.64
2023-04-16T07:26:53.341Z,88.32
2023-04-16T07:28:25.844Z,87.59
2023-04-16T07:29:57.619Z,88.23
2023-04-16T07:31:29.552Z,87.42
2023-04-16T07:33:03.799Z,88.00
2023-04-16T07:34:35.549Z,87.13
2023-04-16T07:36:07.425Z,86.95
2023-04-16T07:37:39.093Z,87.05
2023-04-16T07:39:11.529Z,86.60
2023-04-16T07:40:43.530Z,87.58
2023-04-16T07:42:15.457Z,87.68
2023-04-16T07:43:47.115Z,86.85
2023-04-16T07:45:19.275Z,86.95
2023-04-16T07:46:50.967Z,87.36
2023-04-16T07:48:22.697Z,87.82
2023-04-16T07:49:54.261Z,86.81
2023-04-16T07:51:26.368Z,88.01
2023-04-16T07:52:57.926Z,87.32
2023-04-16T07:54:29.611Z,86.50
2023-04-16T07:56:01.316Z,85.99
2023-04-16T07:57:33.073Z,86.55
2023-04-16T07:59:14.921Z,86.35
2023-04-16T08:00:53.260Z,84.74
2023-04-16T08:02:25.168Z,85.39
2023-04-16T08:03:57.391Z,86.34
2023-04-16T08:05:29.262Z,86.40
2023-04-16T08:07:00.905Z,85.89
2023-04-16T08:08:32.686Z,84.65
2023-04-16T08:10:05.395Z,85.76
2023-04-16T08:11:37.053Z,85.79
2023-04-16T08:13:08.690Z,84.84
2023-04-16T08:14:41.549Z,84.54
2023-04-16T08:16:13.193Z,85.26
2023-04-16T08:17:44.894Z,85.16
2023-04-16T08:19:16.666Z,86.10
2023-04-16T08:20:48.304Z,86.31
2023-04-16T08:22:20.032Z,85.46
2023-04-16T08:23:51.743Z,85.12
2023-04-16T08:25:24.750Z,84.99
2023-04-16T08:27:02.482Z,84.85
2023-04-16T08:28:43.011Z,85.45
2023-04-16T08:30:16.371Z,84.07
2023-04-16T08:31:48.115Z,85.47
2023-04-16T08:33:19.920Z,85.10
2023-04-16T08:34:51.596Z,86.29
2023-04-16T08:36:23.334Z,85.37
2023-04-16T08:37:55.075Z,86.05
2023-04-16T08:39:26.818Z,86.00
2023-04-16T08:41:03.277Z,86.07
2023-04-16T08:42:40.974Z,85.98
2023-04-16T08:44:24.878Z,85.59
2023-04-16T08:45:57.777Z,85.14
2023-04-16T08:47:34.605Z,85.22
2023-04-16T08:49:08.070Z,85.13
2023-04-16T08:50:41.330Z,85.05
2023-04-16T08:52:18.708Z,84.18
2023-04-16T08:53:54.313Z,84.45
2023-04-16T08:55:35.941Z,82.38
2023-04-16T08:57:11.983Z,83.85
2023-04-16T08:58:46.445Z,83.32
2023-04-16T09:00:19.377Z,83.56
2023-04-16T09:01:52.443Z,81.96
2023-04-16T09:03:24.361Z,82.09
2023-04-16T09:04:58.579Z,82.49
2023-04-16T09:06:31.366Z,82.42
2023-04-16T09:08:03.050Z,83.08
2023-04-16T09:09:35.677Z,82.92
2023-04-16T09:11:07.518Z,82.84
2023-04-16T09:12:41.185Z,82.64
2023-04-16T09:14:13.237Z,81.29
2023-04-16T09:15:45.213Z,81.54
2023-04-16T09:17:18.518Z,79.68
2023-04-16T09:18:50.168Z,80.15
2023-04-16T09:20:21.829Z,81.48
2023-04-16T09:21:53.663Z,80.94
2023-04-16T09:23:25.407Z,80.84
2023-04-16T09:24:57.054Z,80.54
2023-04-16T09:26:29.537Z,81.16
2023-04-16T09:28:01.401Z,80.89
2023-04-16T09:29:38.705Z,80.42
2023-04-16T09:31:17.294Z,80.78
2023-04-16T09:32:50.318Z,80.68
2023-04-16T09:34:22.401Z,81.05
2023-04-16T09:35:54.046Z,80.86
2023-04-16T09:37:27.355Z,80.36
2023-04-16T09:38:59.369Z,78.59
2023-04-16T09:40:31.323Z,79.68
2023-04-16T09:42:06.166Z,78.11
2023-04-16T09:43:38.771Z,79.33
2023-04-16T09:45:10.867Z,80.24
2023-04-16T09:46:43.046Z,80.46
2023-04-16T09:48:16.069Z,78.34
2023-04-16T09:49:47.922Z,79.83
2023-04-16T09:51:19.570Z,78.41
2023-04-16T09:52:51.613Z,79.65
2023-04-16T09:54:23.265Z,80.02
2023-04-16T09:56:03.571Z,79.87
2023-04-16T09:57:37.957Z,78.72
2023-04-16T09:59:19.964Z,78.75
2023-04-16T10:01:18.434Z,78.69
2023-04-16T10:02:50.833Z,79.14
2023-04-16T10:04:22.647Z,78.80
2023-04-16T10:05:54.281Z,79.13
2023-04-16T10:07:29.986Z,78.62
2023-04-16T10:09:01.939Z,79.00
2023-04-16T10:10:33.736Z,79.98
2023-04-16T10:12:06.854Z,77.66
2023-04-16T10:13:38.465Z,78.74
2023-04-16T10:15:10.680Z,79.67
2023-04-16T10:16:44.057Z,79.64
2023-04-16T10:18:17.515Z,78.88
2023-04-16T10:19:50.734Z,80.54
2023-04-16T10:21:22.712Z,81.48
2023-04-16T10:22:54.333Z,81.23
2023-04-16T10:24:26.564Z,81.79
2023-04-16T10:26:00.045Z,81.98
2023-04-16T10:27:32.336Z,81.11
2023-04-16T10:29:05.329Z,81.70
2023-04-16T10:30:37.830Z,80.55
2023-04-16T10:32:09.792Z,78.74
2023-04-16T10:33:42.826Z,79.08
2023-04-16T10:35:21.530Z,79.55
2023-04-16T10:36:54.642Z,80.99
2023-04-16T10:38:27.899Z,79.78
2023-04-16T10:40:02.288Z,78.96
2023-04-16T10:41:34.001Z,79.67
2023-04-16T10:43:07.012Z,77.59
2023-04-16T10:44:43.514Z,78.54
2023-04-16T10:46:22.937Z,78.46
2023-04-16T10:47:57.816Z,77.54
2023-04-16T10:49:29.475Z,77.79
2023-04-16T10:51:01.116Z,77.85
2023-04-16T10:52:32.750Z,78.21
2023-04-16T10:54:12.565Z,76.47
2023-04-16T10:56:16.511Z,77.26
2023-04-16T10:57:49.951Z,78.83
2023-04-16T10:59:23.802Z,78.67
2023-04-16T11:00:55.518Z,79.30
2023-04-16T11:02:29.352Z,78.30
2023-04-16T11:04:22.319Z,78.94
2023-04-16T11:05:55.203Z,78.00
2023-04-16T11:07:35.975Z,77.46
2023-04-16T11:09:46.792Z,79.76
2023-04-16T11:11:19.619Z,78.88
2023-04-16T11:12:51.898Z,79.20
2023-04-16T11:14:23.855Z,78.45
2023-04-16T11:15:57.799Z,79.60
2023-04-16T11:17:39.484Z,79.82
2023-04-16T11:19:16.642Z,80.37
2023-04-16T11:20:48.293Z,80.16
2023-04-16T11:22:20.300Z,80.06
2023-04-16T11:23:53.250Z,80.76
2023-04-16T11:25:34.032Z,80.64
2023-04-16T11:27:05.746Z,80.53
2023-04-16T11:28:37.409Z,80.66
2023-04-16T11:30:13.591Z,81.18
2023-04-16T11:31:54.991Z,80.18
2023-04-16T11:33:26.717Z,80.34
2023-04-16T11:34:59.844Z,81.35
2023-04-16T11:36:46.076Z,81.22
2023-04-16T11:38:18.543Z,80.28
2023-04-16T11:39:53.064Z,81.47
2023-04-16T11:41:24.675Z,80.99
2023-04-16T11:42:57.649Z,80.83
2023-04-16T11:44:30.418Z,80.52
2023-04-16T11:46:12.922Z,80.96
2023-04-16T11:47:55.445Z,81.24
2023-04-16T11:49:30.729Z,80.80
2023-04-16T11:51:02.334Z,80.71
2023-04-16T11:52:34.122Z,80.98
2023-04-16T11:54:07.343Z,80.72
2023-04-16T11:55:47.022Z,79.18
2023-04-16T11:57:29.044Z,79.73
2023-04-16T11:59:17.108Z,81.06
2023-04-16T12:00:49.676Z,80.63
2023-04-16T12:02:43.105Z,80.40
2023-04-16T12:04:16.718Z,78.08
2023-04-16T12:05:48.773Z,78.95
2023-04-16T12:07:20.473Z,78.81
2023-04-16T12:08:52.164Z,78.85
2023-04-16T12:10:24.240Z,78.12
2023-04-16T12:11:56.010Z,79.46
2023-04-16T12:13:27.624Z,79.21
2023-04-16T12:15:00.225Z,79.31
2023-04-16T12:16:32.507Z,78.24
2023-04-16T12:18:09.627Z,78.12
2023-04-16T12:19:58.148Z,79.91
2023-04-16T12:21:40.441Z,79.58
2023-04-16T12:23:25.370Z,78.76
2023-04-16T12:24:59.944Z,80.19
2023-04-16T12:26:42.566Z,78.75
2023-04-16T12:28:14.178Z,77.57
2023-04-16T12:30:03.068Z,77.02
2023-04-16T12:31:38.366Z,77.95
2023-04-16T12:33:18.319Z,77.13
2023-04-16T12:34:51.630Z,78.62
2023-04-16T12:36:24.631Z,78.14
2023-04-16T12:37:56.792Z,77.97
2023-04-16T12:39:28.422Z,78.56
2023-04-16T12:41:02.355Z,78.53
2023-04-16T12:42:36.889Z,79.02
2023-04-16T12:44:16.729Z,78.91
2023-04-16T12:45:49.402Z,78.33
2023-04-16T12:47:21.164Z,79.22
2023-04-16T12:48:52.748Z,79.05
2023-04-16T12:50:24.539Z,80.34
2023-04-16T12:51:56.369Z,81.22
2023-04-16T12:53:28.101Z,79.38
2023-04-16T12:55:00.060Z,80.18
2023-04-16T12:56:33.365Z,81.01
2023-04-16T12:58:05.001Z,80.01
2023-04-16T12:59:36.590Z,80.50
2023-04-16T13:01:08.272Z,80.89
2023-04-16T13:02:40.132Z,79.38
2023-04-16T13:04:12.327Z,81.05
2023-04-16T13:05:44.329Z,80.57
2023-04-16T13:07:16.775Z,81.63
2023-04-16T13:08:48.435Z,80.52
2023-04-16T13:10:21.952Z,80.34
2023-04-16T13:11:53.596Z,79.47
2023-04-16T13:13:25.519Z,80.40
2023-04-16T13:14:57.166Z,80.39
2023-04-16T13:16:28.896Z,79.72
2023-04-16T13:18:00.735Z,78.91
2023-04-16T13:19:32.407Z,79.74
2023-04-16T13:21:04.241Z,79.48
2023-04-16T13:22:35.906Z,79.93
2023-04-16T13:24:07.644Z,79.88
2023-04-16T13:25:39.461Z,80.67
2023-04-16T13:27:11.410Z,77.86
2023-04-16T13:28:43.014Z,78.60
2023-04-16T13:30:14.941Z,78.53
2023-04-16T13:31:46.898Z,80.03
2023-04-16T13:33:19.511Z,79.56
2023-04-16T13:34:51.147Z,80.92
2023-04-16T13:36:22.817Z,80.34
2023-04-16T13:37:54.439Z,80.87
2023-04-16T13:39:26.194Z,80.40
2023-04-16T13:40:57.825Z,80.42
2023-04-16T13:42:29.498Z,80.17
2023-04-16T13:44:01.169Z,80.03
2023-04-16T13:45:33.313Z,80.93
2023-04-16T13:47:05.071Z,79.74
2023-04-16T13:48:36.693Z,80.05
2023-04-16T13:50:08.643Z,78.91
2023-04-16T13:51:41.468Z,78.52
2023-04-16T13:53:13.146Z,79.37
2023-04-16T13:54:44.778Z,77.98
2023-04-16T13:56:25.109Z,78.95
2023-04-16T13:57:56.747Z,79.89
2023-04-16T13:59:29.030Z,78.76
2023-04-16T14:01:00.786Z,77.58
2023-04-16T14:02:32.835Z,76.98
2023-04-16T14:04:06.858Z,78.03
2023-04-16T14:05:38.789Z,77.81
2023-04-16T14:07:10.606Z,79.14
2023-04-16T14:08:42.269Z,78.85
2023-04-16T14:10:13.858Z,78.90
2023-04-16T14:11:45.563Z,80.05
2023-04-16T14:13:17.153Z,79.97
2023-04-16T14:14:48.843Z,79.17
2023-04-16T14:16:20.677Z,77.74
2023-04-16T14:17:52.546Z,78.04
2023-04-16T14:19:24.350Z,79.24
2023-04-16T14:20:56.048Z,80.00
2023-04-16T14:22:27.785Z,79.46
2023-04-16T14:23:59.512Z,79.64
2023-04-16T14:25:31.069Z,79.58
2023-04-16T14:27:03.013Z,78.58
2023-04-16T14:28:35.804Z,80.14
2023-04-16T14:30:08.042Z,78.24
2023-04-16T14:31:39.655Z,79.29
2023-04-16T14:33:11.476Z,79.47
2023-04-16T14:34:43.280Z,80.05
2023-04-16T14:36:14.974Z,80.72
2023-04-16T14:37:47.167Z,78.83
2023-04-16T14:39:19.161Z,80.25
2023-04-16T14:40:50.830Z,78.87
2023-04-16T14:42:22.538Z,78.37
2023-04-16T14:43:54.208Z,78.23
2023-04-16T14:45:27.118Z,79.14
2023-04-16T14:46:58.818Z,78.92
2023-04-16T14:48:30.987Z,79.95
2023-04-16T14:50:02.682Z,79.63
2023-04-16T14:51:34.344Z,78.22
2023-04-16T14:53:06.018Z,79.87
2023-04-16T14:54:37.687Z,77.73
2023-04-16T14:56:10.366Z,79.21
2023-04-16T14:57:42.047Z,79.32
2023-04-16T14:59:13.698Z,80.21
2023-04-16T15:00:45.401Z,79.17
2023-04-16T15:02:17.148Z,78.92
2023-04-16T15:03:49.700Z,79.25
2023-04-16T15:05:21.715Z,79.46
2023-04-16T15:08:27.153Z,78.74
2023-04-16T15:09:59.104Z,79.89
2023-04-16T15:11:30.848Z,79.76
2023-04-16T15:13:02.413Z,80.06
2023-04-16T15:14:34.045Z,79.39
2023-04-16T15:16:05.908Z,80.08
2023-04-16T15:17:37.648Z,80.41
2023-04-16T15:19:09.705Z,81.63
2023-04-16T15:20:41.568Z,81.64
2023-04-16T15:22:14.821Z,82.28
2023-04-16T15:23:46.595Z,81.34
2023-04-16T15:25:18.363Z,80.87
2023-04-16T15:26:50.166Z,79.62
2023-04-16T15:28:22.025Z,80.37
2023-04-16T15:29:54.057Z,81.19
2023-04-16T15:31:26.405Z,81.14
2023-04-16T15:32:58.400Z,81.33
2023-04-16T15:34:30.480Z,80.56
2023-04-16T15:36:02.321Z,81.55
2023-04-16T15:37:34.047Z,81.76
2023-04-16T15:39:05.789Z,81.69
2023-04-16T15:40:37.634Z,81.28
2023-04-16T15:42:11.165Z,80.65
2023-04-16T15:43:42.905Z,81.94
2023-04-16T15:45:14.630Z,82.31
2023-04-16T15:46:47.040Z,82.56
2023-04-16T15:48:18.862Z,82.65
2023-04-16T15:49:50.580Z,82.11
2023-04-16T15:51:22.652Z,82.39
2023-04-16T15:52:54.492Z,82.82
2023-04-16T15:54:26.291Z,82.37
2023-04-16T15:55:58.156Z,82.44
2023-04-16T15:57:29.837Z,82.93
2023-04-16T15:59:01.543Z,83.63
2023-04-16T16:00:33.258Z,84.07
2023-04-16T16:02:05.190Z,84.19
2023-04-16T16:03:37.345Z,84.88
2023-04-16T16:05:16.717Z,84.95
2023-04-16T16:06:50.110Z,85.17
2023-04-16T16:08:21.841Z,83.33
2023-04-16T16:09:53.511Z,82.54
2023-04-16T16:11:25.149Z,83.99
2023-04-16T16:12:57.606Z,84.90
2023-04-16T16:14:29.303Z,84.38
2023-04-16T16:16:01.040Z,85.51
2023-04-16T16:17:33.142Z,84.33
2023-04-16T16:19:04.824Z,84.29
2023-04-16T16:20:36.702Z,85.26
2023-04-16T16:22:10.293Z,84.64
2023-04-16T16:23:42.110Z,84.71
2023-04-16T16:25:14.353Z,85.05
2023-04-16T16:26:46.006Z,85.20
2023-04-16T16:28:17.960Z,85.47
2023-04-16T16:29:49.575Z,85.12
2023-04-16T16:31:21.225Z,84.53
2023-04-16T16:32:54.217Z,85.28
2023-04-16T16:34:26.205Z,84.70
2023-04-16T16:35:57.849Z,85.88
2023-04-16T16:37:29.490Z,86.60
2023-04-16T16:39:01.918Z,86.58
2023-04-16T16:40:33.759Z,86.57
2023-04-16T16:42:06.027Z,86.95
2023-04-16T16:43:37.768Z,87.17
2023-04-16T16:45:10.314Z,86.72
2023-04-16T16:46:42.189Z,87.12
2023-04-16T16:48:14.004Z,87.47
2023-04-16T16:49:45.761Z,87.88
2023-04-16T16:51:18.988Z,87.99
2023-04-16T16:52:51.131Z,88.31
2023-04-16T16:54:22.865Z,87.71
2023-04-16T16:55:54.477Z,87.36
2023-04-16T16:57:26.403Z,87.09
2023-04-16T16:58:58.348Z,88.22
2023-04-16T17:00:30.736Z,88.41
2023-04-16T17:02:02.696Z,88.67
2023-04-16T17:03:34.686Z,89.53
2023-04-16T17:05:07.563Z,88.39
2023-04-16T17:06:39.521Z,88.52
2023-04-16T17:08:12.011Z,88.77
2023-04-16T17:09:43.799Z,88.71
2023-04-16T17:11:16.496Z,89.27
2023-04-16T17:12:49.204Z,89.57
2023-04-16T17:14:21.085Z,89.77
2023-04-16T17:15:52.816Z,89.81
2023-04-16T17:17:26.894Z,90.39
2023-04-16T17:18:59.323Z,89.87
2023-04-16T17:20:32.502Z,90.26
2023-04-16T17:22:05.105Z,89.98
2023-04-16T17:23:37.926Z,90.17
2023-04-16T17:25:11.045Z,90.44
2023-04-16T17:26:42.928Z,89.82
2023-04-16T17:28:14.931Z,89.30
2023-04-16T17:29:46.787Z,88.72
2023-04-16T17:31:18.710Z,89.55
2023-04-16T17:32:50.516Z,88.66
2023-04-16T17:34:22.517Z,88.45
2023-04-16T17:35:54.450Z,88.57
2023-04-16T17:37:26.471Z,88.44
2023-04-16T17:38:58.658Z,88.06
2023-04-16T17:40:31.186Z,88.23
2023-04-16T17:42:04.104Z,88.33
2023-04-16T17:43:35.880Z,88.41
2023-04-16T17:45:08.057Z,88.77
2023-04-16T17:46:39.745Z,89.02
2023-04-16T17:48:11.475Z,89.38
2023-04-16T17:49:44.364Z,88.63
2023-04-16T17:51:16.624Z,88.24
2023-04-16T17:52:48.469Z,87.67
2023-04-16T17:54:20.255Z,87.49
2023-04-16T17:55:56.831Z,87.75
2023-04-16T17:57:28.832Z,88.71
2023-04-16T17:59:01.252Z,88.68
2023-04-16T18:00:33.393Z,88.53
2023-04-16T18:02:05.145Z,87.76
2023-04-16T18:03:38.400Z,88.19
2023-04-16T18:05:10.465Z,88.41
2023-04-16T18:06:42.110Z,88.73
2023-04-16T18:08:13.832Z,88.50
2023-04-16T18:09:45.619Z,88.56
2023-04-16T18:11:17.304Z,87.92
2023-04-16T18:12:48.978Z,88.88
2023-04-16T18:14:21.501Z,89.28
2023-04-16T18:15:53.693Z,88.52
2023-04-16T18:17:25.442Z,89.05
2023-04-16T18:18:57.368Z,88.66
2023-04-16T18:20:29.116Z,89.31
2023-04-16T18:22:00.916Z,89.46
2023-04-16T18:23:32.669Z,89.76
2023-04-16T18:25:05.278Z,89.87
2023-04-16T18:26:37.557Z,89.83
2023-04-16T18:28:09.612Z,89.75
2023-04-16T18:29:44.027Z,89.10
2023-04-16T18:31:20.635Z,90.23
2023-04-16T18:33:11.564Z,90.80
2023-04-16T18:34:44.747Z,89.39
2023-04-16T18:36:16.768Z,89.67
2023-04-16T18:37:48.627Z,89.60
2023-04-16T18:39:20.639Z,89.99
2023-04-16T18:40:52.440Z,90.54
2023-04-16T18:42:24.137Z,89.24
2023-04-16T18:43:56.062Z,90.19
2023-04-16T18:45:28.350Z,90.35
2023-04-16T18:47:00.638Z,90.12
2023-04-16T18:48:32.371Z,90.04
2023-04-16T18:50:04.462Z,90.28
2023-04-16T18:51:36.145Z,90.20
2023-04-16T18:53:07.981Z,90.42
2023-04-16T18:54:40.997Z,89.43
2023-04-16T18:56:13.009Z,89.90
2023-04-16T18:57:44.890Z,89.45
2023-04-16T18:59:16.703Z,90.16
2023-04-16T19:00:53.339Z,90.56
2023-04-16T19:02:25.128Z,89.09
2023-04-16T19:03:57.038Z,89.42
2023-04-16T19:05:29.290Z,89.18
2023-04-16T19:07:01.081Z,89.38
2023-04-16T19:08:33.120Z,89.92
2023-04-16T19:10:05.942Z,89.11
2023-04-16T19:11:37.786Z,89.43
2023-04-16T19:13:09.616Z,89.87
2023-04-16T19:14:41.360Z,88.73
2023-04-16T19:16:13.269Z,89.22
2023-04-16T19:17:45.013Z,90.00
2023-04-16T19:19:17.644Z,88.26
2023-04-16T19:20:49.330Z,89.18
2023-04-16T19:22:21.087Z,88.79
2023-04-16T19:23:52.888Z,89.14
2023-04-16T19:25:24.639Z,88.38
2023-04-16T19:26:56.255Z,89.03
2023-04-16T19:28:28.487Z,89.64
2023-04-16T19:30:00.418Z,89.96
2023-04-16T19:31:32.245Z,88.57
2023-04-16T19:33:04.188Z,88.50
2023-04-16T19:34:35.950Z,88.03
2023-04-16T19:36:07.903Z,87.94
2023-04-16T19:37:39.978Z,87.13
2023-04-16T19:39:11.853Z,87.96
2023-04-16T19:40:45.456Z,87.49
2023-04-16T19:42:17.122Z,87.39
2023-04-16T19:43:48.928Z,88.54
2023-04-16T19:45:25.744Z,88.10
2023-04-16T19:46:57.556Z,88.52
2023-04-16T19:48:37.000Z,88.49
2023-04-16T19:50:09.193Z,88.34
2023-04-16T19:51:40.928Z,88.49
2023-04-16T19:53:12.634Z,88.57
2023-04-16T19:54:44.707Z,88.93
2023-04-16T19:56:17.241Z,88.54
2023-04-16T19:57:49.060Z,89.86
2023-04-16T19:59:21.019Z,88.60